sensor_id;sensor_type;location;lat;lon;timestamp;P1;durP1;ratioP1;P2;durP2;ratioP2
43933;SDS011;59081;42.706;23.306;2023-05-07T00:01:21;16.33;;;10.05;;
43933;SDS011;59081;42.706;23.306;2023-05-07T00:03:47;13.30;;;10.27;;
43933;SDS011;59081;42.706;23.306;2023-05-07T00:06:12;19.30;;;10.15;;
43933;SDS011;59081;42.706;23.306;2023-05-07T00:08:38;14.40;;;10.10;;
43933;SDS011;59081;42.706;23.306;2023-05-07T00:11:06;14.30;;;9.48;;
43933;SDS011;59081;42.706;23.306;2023-05-07T00:13:32;23.42;;;10.15;;
43933;SDS011;59081;42.706;23.306;2023-05-07T00:16:00;12.95;;;9.25;;
43933;SDS011;59081;42.706;23.306;2023-05-07T00:18:29;14.90;;;9.23;;
43933;SDS011;59081;42.706;23.306;2023-05-07T00:20:55;16.92;;;9.93;;
43933;SDS011;59081;42.706;23.306;2023-05-07T00:23:23;16.70;;;9.68;;
43933;SDS011;59081;42.706;23.306;2023-05-07T00:25:48;17.05;;;10.10;;
43933;SDS011;59081;42.706;23.306;2023-05-07T00:28:14;14.75;;;9.50;;
43933;SDS011;59081;42.706;23.306;2023-05-07T00:30:39;15.43;;;8.57;;
43933;SDS011;59081;42.706;23.306;2023-05-07T00:33:05;15.05;;;9.85;;
43933;SDS011;59081;42.706;23.306;2023-05-07T00:35:30;13.20;;;9.23;;
43933;SDS011;59081;42.706;23.306;2023-05-07T00:37:56;14.55;;;9.30;;
43933;SDS011;59081;42.706;23.306;2023-05-07T00:40:22;18.92;;;10.32;;
43933;SDS011;59081;42.706;23.306;2023-05-07T00:42:47;15.13;;;9.23;;
43933;SDS011;59081;42.706;23.306;2023-05-07T00:45:14;17.60;;;8.80;;
43933;SDS011;59081;42.706;23.306;2023-05-07T00:47:40;16.77;;;10.27;;
43933;SDS011;59081;42.706;23.306;2023-05-07T00:50:08;12.80;;;9.82;;
43933;SDS011;59081;42.706;23.306;2023-05-07T00:52:38;16.48;;;10.52;;
43933;SDS011;59081;42.706;23.306;2023-05-07T00:55:04;15.27;;;9.90;;
43933;SDS011;59081;42.706;23.306;2023-05-07T00:57:36;14.13;;;9.07;;
43933;SDS011;59081;42.706;23.306;2023-05-07T01:00:06;14.55;;;9.32;;
43933;SDS011;59081;42.706;23.306;2023-05-07T01:02:37;15.75;;;9.90;;
43933;SDS011;59081;42.706;23.306;2023-05-07T01:05:03;13.15;;;9.50;;
43933;SDS011;59081;42.706;23.306;2023-05-07T01:07:31;14.27;;;8.50;;
43933;SDS011;59081;42.706;23.306;2023-05-07T01:09:58;15.70;;;9.60;;
43933;SDS011;59081;42.706;23.306;2023-05-07T01:12:24;16.65;;;9.18;;
43933;SDS011;59081;42.706;23.306;2023-05-07T01:14:50;12.10;;;8.05;;
43933;SDS011;59081;42.706;23.306;2023-05-07T01:17:17;14.23;;;9.00;;
43933;SDS011;59081;42.706;23.306;2023-05-07T01:19:42;20.92;;;9.40;;
43933;SDS011;59081;42.706;23.306;2023-05-07T01:22:09;15.18;;;10.43;;
43933;SDS011;59081;42.706;23.306;2023-05-07T01:24:40;14.00;;;10.40;;
43933;SDS011;59081;42.706;23.306;2023-05-07T01:27:06;15.57;;;9.55;;
43933;SDS011;59081;42.706;23.306;2023-05-07T01:29:32;12.82;;;9.27;;
43933;SDS011;59081;42.706;23.306;2023-05-07T01:31:58;15.93;;;9.88;;
43933;SDS011;59081;42.706;23.306;2023-05-07T01:34:25;17.83;;;9.55;;
43933;SDS011;59081;42.706;23.306;2023-05-07T01:36:54;14.43;;;9.45;;
43933;SDS011;59081;42.706;23.306;2023-05-07T01:39:24;15.00;;;9.95;;
43933;SDS011;59081;42.706;23.306;2023-05-07T01:41:54;14.55;;;10.10;;
43933;SDS011;59081;42.706;23.306;2023-05-07T01:44:24;21.15;;;9.43;;
43933;SDS011;59081;42.706;23.306;2023-05-07T01:46:50;16.60;;;9.35;;
43933;SDS011;59081;42.706;23.306;2023-05-07T01:49:17;13.65;;;9.23;;
43933;SDS011;59081;42.706;23.306;2023-05-07T01:51:43;15.73;;;9.35;;
43933;SDS011;59081;42.706;23.306;2023-05-07T01:54:09;19.58;;;10.32;;
43933;SDS011;59081;42.706;23.306;2023-05-07T01:56:42;17.10;;;9.30;;
43933;SDS011;59081;42.706;23.306;2023-05-07T01:59:08;13.68;;;8.77;;
43933;SDS011;59081;42.706;23.306;2023-05-07T02:04:04;12.13;;;7.68;;
43933;SDS011;59081;42.706;23.306;2023-05-07T02:06:36;12.05;;;7.35;;
43933;SDS011;59081;42.706;23.306;2023-05-07T02:09:04;9.48;;;6.80;;
43933;SDS011;59081;42.706;23.306;2023-05-07T02:11:34;10.55;;;7.47;;
43933;SDS011;59081;42.706;23.306;2023-05-07T02:14:00;16.17;;;7.00;;
43933;SDS011;59081;42.706;23.306;2023-05-07T02:16:25;10.18;;;6.78;;
43933;SDS011;59081;42.706;23.306;2023-05-07T02:18:51;10.48;;;7.53;;
43933;SDS011;59081;42.706;23.306;2023-05-07T02:21:17;12.48;;;7.55;;
43933;SDS011;59081;42.706;23.306;2023-05-07T02:23:42;11.48;;;6.93;;
43933;SDS011;59081;42.706;23.306;2023-05-07T02:26:08;10.88;;;6.80;;
43933;SDS011;59081;42.706;23.306;2023-05-07T02:28:36;9.18;;;6.40;;
43933;SDS011;59081;42.706;23.306;2023-05-07T02:31:04;14.05;;;6.50;;
43933;SDS011;59081;42.706;23.306;2023-05-07T02:33:30;10.65;;;6.78;;
43933;SDS011;59081;42.706;23.306;2023-05-07T02:35:55;9.68;;;6.80;;
43933;SDS011;59081;42.706;23.306;2023-05-07T02:38:21;9.52;;;6.32;;
43933;SDS011;59081;42.706;23.306;2023-05-07T02:40:47;9.43;;;7.25;;
43933;SDS011;59081;42.706;23.306;2023-05-07T02:43:13;10.45;;;6.57;;
43933;SDS011;59081;42.706;23.306;2023-05-07T02:45:38;13.32;;;7.32;;
43933;SDS011;59081;42.706;23.306;2023-05-07T02:48:08;13.73;;;8.75;;
43933;SDS011;59081;42.706;23.306;2023-05-07T02:50:36;16.02;;;8.45;;
43933;SDS011;59081;42.706;23.306;2023-05-07T02:53:05;14.18;;;8.23;;
43933;SDS011;59081;42.706;23.306;2023-05-07T02:55:33;11.23;;;8.20;;
43933;SDS011;59081;42.706;23.306;2023-05-07T02:57:59;13.82;;;8.23;;
43933;SDS011;59081;42.706;23.306;2023-05-07T03:00:25;11.57;;;7.63;;
43933;SDS011;59081;42.706;23.306;2023-05-07T03:02:53;13.77;;;7.93;;
43933;SDS011;59081;42.706;23.306;2023-05-07T03:05:32;16.83;;;9.98;;
43933;SDS011;59081;42.706;23.306;2023-05-07T03:07:57;17.02;;;9.50;;
43933;SDS011;59081;42.706;23.306;2023-05-07T03:10:23;15.45;;;8.88;;
43933;SDS011;59081;42.706;23.306;2023-05-07T03:12:49;14.60;;;9.23;;
43933;SDS011;59081;42.706;23.306;2023-05-07T03:15:15;15.18;;;8.60;;
43933;SDS011;59081;42.706;23.306;2023-05-07T03:17:43;14.30;;;8.95;;
43933;SDS011;59081;42.706;23.306;2023-05-07T03:20:09;18.15;;;9.45;;
43933;SDS011;59081;42.706;23.306;2023-05-07T03:22:40;16.67;;;9.02;;
43933;SDS011;59081;42.706;23.306;2023-05-07T03:25:07;19.02;;;10.18;;
43933;SDS011;59081;42.706;23.306;2023-05-07T03:27:33;13.88;;;9.32;;
43933;SDS011;59081;42.706;23.306;2023-05-07T03:29:59;15.32;;;8.73;;
43933;SDS011;59081;42.706;23.306;2023-05-07T03:32:27;14.48;;;9.60;;
43933;SDS011;59081;42.706;23.306;2023-05-07T03:34:53;16.23;;;8.95;;
43933;SDS011;59081;42.706;23.306;2023-05-07T03:37:19;15.07;;;9.73;;
43933;SDS011;59081;42.706;23.306;2023-05-07T03:39:47;14.05;;;9.05;;
43933;SDS011;59081;42.706;23.306;2023-05-07T03:42:18;18.38;;;8.68;;
43933;SDS011;59081;42.706;23.306;2023-05-07T03:44:46;14.88;;;9.02;;
43933;SDS011;59081;42.706;23.306;2023-05-07T03:47:12;12.02;;;8.90;;
43933;SDS011;59081;42.706;23.306;2023-05-07T03:49:38;14.52;;;8.98;;
43933;SDS011;59081;42.706;23.306;2023-05-07T03:52:04;24.35;;;17.40;;
43933;SDS011;59081;42.706;23.306;2023-05-07T03:54:35;41.90;;;33.80;;
43933;SDS011;59081;42.706;23.306;2023-05-07T03:57:06;48.40;;;36.42;;
43933;SDS011;59081;42.706;23.306;2023-05-07T03:59:34;51.25;;;36.70;;
43933;SDS011;59081;42.706;23.306;2023-05-07T04:02:02;45.70;;;36.00;;
43933;SDS011;59081;42.706;23.306;2023-05-07T04:04:31;43.13;;;32.67;;
43933;SDS011;59081;42.706;23.306;2023-05-07T04:07:00;42.78;;;31.90;;
43933;SDS011;59081;42.706;23.306;2023-05-07T04:09:31;39.50;;;30.38;;
43933;SDS011;59081;42.706;23.306;2023-05-07T04:11:57;29.48;;;22.40;;
43933;SDS011;59081;42.706;23.306;2023-05-07T04:14:23;18.30;;;14.88;;
43933;SDS011;59081;42.706;23.306;2023-05-07T04:16:53;19.17;;;12.85;;
43933;SDS011;59081;42.706;23.306;2023-05-07T04:19:19;17.98;;;13.02;;
43933;SDS011;59081;42.706;23.306;2023-05-07T04:21:45;17.48;;;13.02;;
43933;SDS011;59081;42.706;23.306;2023-05-07T04:24:11;15.40;;;11.77;;
43933;SDS011;59081;42.706;23.306;2023-05-07T04:26:37;23.48;;;16.13;;
43933;SDS011;59081;42.706;23.306;2023-05-07T04:29:03;20.77;;;14.23;;
43933;SDS011;59081;42.706;23.306;2023-05-07T04:31:28;21.33;;;13.85;;
43933;SDS011;59081;42.706;23.306;2023-05-07T04:33:55;13.02;;;9.00;;
43933;SDS011;59081;42.706;23.306;2023-05-07T04:36:23;12.80;;;8.93;;
43933;SDS011;59081;42.706;23.306;2023-05-07T04:41:18;13.15;;;8.52;;
43933;SDS011;59081;42.706;23.306;2023-05-07T04:43:44;11.20;;;8.25;;
43933;SDS011;59081;42.706;23.306;2023-05-07T04:46:10;13.75;;;7.72;;
43933;SDS011;59081;42.706;23.306;2023-05-07T04:48:36;11.60;;;7.75;;
43933;SDS011;59081;42.706;23.306;2023-05-07T04:51:11;11.80;;;8.63;;
43933;SDS011;59081;42.706;23.306;2023-05-07T04:53:43;13.80;;;8.95;;
43933;SDS011;59081;42.706;23.306;2023-05-07T04:56:09;14.30;;;8.10;;
43933;SDS011;59081;42.706;23.306;2023-05-07T04:58:43;14.40;;;8.48;;
43933;SDS011;59081;42.706;23.306;2023-05-07T05:01:08;12.45;;;8.82;;
43933;SDS011;59081;42.706;23.306;2023-05-07T05:03:34;11.68;;;8.93;;
43933;SDS011;59081;42.706;23.306;2023-05-07T05:06:00;11.88;;;8.75;;
43933;SDS011;59081;42.706;23.306;2023-05-07T05:08:25;12.23;;;9.63;;
43933;SDS011;59081;42.706;23.306;2023-05-07T05:10:51;14.00;;;9.77;;
43933;SDS011;59081;42.706;23.306;2023-05-07T05:13:20;15.32;;;9.98;;
43933;SDS011;59081;42.706;23.306;2023-05-07T05:15:51;15.00;;;10.05;;
43933;SDS011;59081;42.706;23.306;2023-05-07T05:18:16;14.30;;;10.00;;
43933;SDS011;59081;42.706;23.306;2023-05-07T05:20:42;19.55;;;9.48;;
43933;SDS011;59081;42.706;23.306;2023-05-07T05:23:08;13.02;;;9.57;;
43933;SDS011;59081;42.706;23.306;2023-05-07T05:25:33;13.93;;;9.77;;
43933;SDS011;59081;42.706;23.306;2023-05-07T05:27:59;14.18;;;9.57;;
43933;SDS011;59081;42.706;23.306;2023-05-07T05:30:24;18.85;;;9.52;;
43933;SDS011;59081;42.706;23.306;2023-05-07T05:32:50;12.00;;;9.70;;
43933;SDS011;59081;42.706;23.306;2023-05-07T05:35:16;16.90;;;13.15;;
43933;SDS011;59081;42.706;23.306;2023-05-07T05:37:41;21.90;;;15.57;;
43933;SDS011;59081;42.706;23.306;2023-05-07T05:40:07;24.88;;;17.27;;
43933;SDS011;59081;42.706;23.306;2023-05-07T05:42:33;22.67;;;12.75;;
43933;SDS011;59081;42.706;23.306;2023-05-07T05:44:58;16.30;;;10.82;;
43933;SDS011;59081;42.706;23.306;2023-05-07T05:47:24;13.85;;;10.52;;
43933;SDS011;59081;42.706;23.306;2023-05-07T05:49:49;14.15;;;10.15;;
43933;SDS011;59081;42.706;23.306;2023-05-07T05:52:17;27.88;;;18.30;;
43933;SDS011;59081;42.706;23.306;2023-05-07T05:54:43;13.68;;;10.13;;
43933;SDS011;59081;42.706;23.306;2023-05-07T05:57:08;15.18;;;11.55;;
43933;SDS011;59081;42.706;23.306;2023-05-07T05:59:34;26.40;;;17.23;;
43933;SDS011;59081;42.706;23.306;2023-05-07T06:02:03;17.38;;;11.48;;
43933;SDS011;59081;42.706;23.306;2023-05-07T06:04:28;17.13;;;10.82;;
43933;SDS011;59081;42.706;23.306;2023-05-07T06:06:55;19.63;;;11.65;;
43933;SDS011;59081;42.706;23.306;2023-05-07T06:09:21;15.95;;;11.25;;
43933;SDS011;59081;42.706;23.306;2023-05-07T06:11:47;13.85;;;10.27;;
43933;SDS011;59081;42.706;23.306;2023-05-07T06:14:12;13.38;;;10.05;;
43933;SDS011;59081;42.706;23.306;2023-05-07T06:16:38;13.48;;;10.50;;
43933;SDS011;59081;42.706;23.306;2023-05-07T06:19:03;12.25;;;10.55;;
43933;SDS011;59081;42.706;23.306;2023-05-07T06:21:29;13.93;;;10.68;;
43933;SDS011;59081;42.706;23.306;2023-05-07T06:23:55;19.23;;;10.63;;
43933;SDS011;59081;42.706;23.306;2023-05-07T06:26:21;17.23;;;11.32;;
43933;SDS011;59081;42.706;23.306;2023-05-07T06:28:47;13.93;;;10.07;;
43933;SDS011;59081;42.706;23.306;2023-05-07T06:31:16;14.50;;;10.10;;
43933;SDS011;59081;42.706;23.306;2023-05-07T06:33:47;18.08;;;10.00;;
43933;SDS011;59081;42.706;23.306;2023-05-07T06:36:14;14.85;;;10.80;;
43933;SDS011;59081;42.706;23.306;2023-05-07T06:38:46;19.08;;;11.85;;
43933;SDS011;59081;42.706;23.306;2023-05-07T06:41:12;14.43;;;10.85;;
43933;SDS011;59081;42.706;23.306;2023-05-07T06:43:37;14.95;;;9.88;;
43933;SDS011;59081;42.706;23.306;2023-05-07T06:46:03;13.15;;;10.13;;
43933;SDS011;59081;42.706;23.306;2023-05-07T06:48:28;15.93;;;12.18;;
43933;SDS011;59081;42.706;23.306;2023-05-07T06:50:54;21.05;;;11.27;;
43933;SDS011;59081;42.706;23.306;2023-05-07T06:53:20;16.25;;;10.27;;
43933;SDS011;59081;42.706;23.306;2023-05-07T06:55:46;19.85;;;15.10;;
43933;SDS011;59081;42.706;23.306;2023-05-07T06:58:12;14.98;;;10.30;;
43933;SDS011;59081;42.706;23.306;2023-05-07T07:00:37;15.07;;;10.15;;
43933;SDS011;59081;42.706;23.306;2023-05-07T07:03:03;16.80;;;11.07;;
43933;SDS011;59081;42.706;23.306;2023-05-07T07:05:28;16.13;;;9.75;;
43933;SDS011;59081;42.706;23.306;2023-05-07T07:07:54;15.07;;;11.40;;
43933;SDS011;59081;42.706;23.306;2023-05-07T07:10:20;13.25;;;7.55;;
43933;SDS011;59081;42.706;23.306;2023-05-07T07:12:47;13.98;;;8.93;;
43933;SDS011;59081;42.706;23.306;2023-05-07T07:15:13;18.10;;;9.75;;
43933;SDS011;59081;42.706;23.306;2023-05-07T07:17:39;15.20;;;10.57;;
43933;SDS011;59081;42.706;23.306;2023-05-07T07:20:04;12.32;;;8.75;;
43933;SDS011;59081;42.706;23.306;2023-05-07T07:22:30;12.98;;;9.23;;
43933;SDS011;59081;42.706;23.306;2023-05-07T07:24:56;13.00;;;7.53;;
43933;SDS011;59081;42.706;23.306;2023-05-07T07:27:22;20.85;;;9.38;;
43933;SDS011;59081;42.706;23.306;2023-05-07T07:29:47;11.75;;;8.98;;
43933;SDS011;59081;42.706;23.306;2023-05-07T07:32:13;14.20;;;9.70;;
43933;SDS011;59081;42.706;23.306;2023-05-07T07:34:38;14.68;;;8.75;;
43933;SDS011;59081;42.706;23.306;2023-05-07T07:37:03;13.52;;;9.02;;
43933;SDS011;59081;42.706;23.306;2023-05-07T07:39:34;16.13;;;12.27;;
43933;SDS011;59081;42.706;23.306;2023-05-07T07:41:59;13.35;;;9.65;;
43933;SDS011;59081;42.706;23.306;2023-05-07T07:44:25;14.45;;;8.88;;
43933;SDS011;59081;42.706;23.306;2023-05-07T07:46:51;19.83;;;9.90;;
43933;SDS011;59081;42.706;23.306;2023-05-07T07:49:16;15.23;;;9.32;;
43933;SDS011;59081;42.706;23.306;2023-05-07T07:51:42;14.02;;;8.68;;
43933;SDS011;59081;42.706;23.306;2023-05-07T07:54:08;10.18;;;8.02;;
43933;SDS011;59081;42.706;23.306;2023-05-07T07:56:33;16.67;;;9.73;;
43933;SDS011;59081;42.706;23.306;2023-05-07T07:58:59;17.85;;;7.80;;
43933;SDS011;59081;42.706;23.306;2023-05-07T08:01:25;11.38;;;7.45;;
43933;SDS011;59081;42.706;23.306;2023-05-07T08:03:51;11.00;;;7.60;;
43933;SDS011;59081;42.706;23.306;2023-05-07T08:06:16;12.30;;;8.10;;
43933;SDS011;59081;42.706;23.306;2023-05-07T08:08:42;22.35;;;11.63;;
43933;SDS011;59081;42.706;23.306;2023-05-07T08:11:08;12.80;;;9.00;;
43933;SDS011;59081;42.706;23.306;2023-05-07T08:13:34;10.30;;;7.63;;
43933;SDS011;59081;42.706;23.306;2023-05-07T08:15:59;9.60;;;7.60;;
43933;SDS011;59081;42.706;23.306;2023-05-07T08:18:25;10.13;;;8.38;;
43933;SDS011;59081;42.706;23.306;2023-05-07T08:20:51;12.35;;;7.35;;
43933;SDS011;59081;42.706;23.306;2023-05-07T08:23:16;12.27;;;7.28;;
43933;SDS011;59081;42.706;23.306;2023-05-07T08:25:41;13.25;;;10.43;;
43933;SDS011;59081;42.706;23.306;2023-05-07T08:28:07;15.45;;;8.57;;
43933;SDS011;59081;42.706;23.306;2023-05-07T08:30:33;12.25;;;7.97;;
43933;SDS011;59081;42.706;23.306;2023-05-07T08:32:59;14.73;;;8.13;;
43933;SDS011;59081;42.706;23.306;2023-05-07T08:35:25;11.60;;;7.68;;
43933;SDS011;59081;42.706;23.306;2023-05-07T08:37:52;13.98;;;7.93;;
43933;SDS011;59081;42.706;23.306;2023-05-07T08:40:17;9.95;;;7.43;;
43933;SDS011;59081;42.706;23.306;2023-05-07T08:42:43;7.90;;;6.15;;
43933;SDS011;59081;42.706;23.306;2023-05-07T08:45:09;7.78;;;6.03;;
43933;SDS011;59081;42.706;23.306;2023-05-07T08:47:40;10.90;;;6.07;;
43933;SDS011;59081;42.706;23.306;2023-05-07T08:50:10;10.25;;;6.40;;
43933;SDS011;59081;42.706;23.306;2023-05-07T08:52:36;15.23;;;6.55;;
43933;SDS011;59081;42.706;23.306;2023-05-07T08:55:02;7.63;;;4.90;;
43933;SDS011;59081;42.706;23.306;2023-05-07T08:57:28;9.40;;;6.03;;
43933;SDS011;59081;42.706;23.306;2023-05-07T08:59:54;8.93;;;6.00;;
43933;SDS011;59081;42.706;23.306;2023-05-07T09:02:20;11.40;;;6.95;;
43933;SDS011;59081;42.706;23.306;2023-05-07T09:04:45;11.32;;;6.07;;
43933;SDS011;59081;42.706;23.306;2023-05-07T09:07:11;10.77;;;5.30;;
43933;SDS011;59081;42.706;23.306;2023-05-07T09:09:36;8.23;;;5.07;;
43933;SDS011;59081;42.706;23.306;2023-05-07T09:12:02;10.15;;;5.75;;
43933;SDS011;59081;42.706;23.306;2023-05-07T09:14:28;7.72;;;5.47;;
43933;SDS011;59081;42.706;23.306;2023-05-07T09:16:55;8.13;;;5.47;;
43933;SDS011;59081;42.706;23.306;2023-05-07T09:19:24;9.40;;;4.95;;
43933;SDS011;59081;42.706;23.306;2023-05-07T09:22:00;6.45;;;5.03;;
43933;SDS011;59081;42.706;23.306;2023-05-07T09:24:30;6.95;;;5.30;;
43933;SDS011;59081;42.706;23.306;2023-05-07T09:27:00;6.65;;;4.57;;
43933;SDS011;59081;42.706;23.306;2023-05-07T09:29:26;8.43;;;5.53;;
43933;SDS011;59081;42.706;23.306;2023-05-07T09:31:54;6.80;;;4.30;;
43933;SDS011;59081;42.706;23.306;2023-05-07T09:34:19;11.45;;;5.13;;
43933;SDS011;59081;42.706;23.306;2023-05-07T09:36:45;10.18;;;4.32;;
43933;SDS011;59081;42.706;23.306;2023-05-07T09:39:10;7.47;;;4.22;;
43933;SDS011;59081;42.706;23.306;2023-05-07T09:41:48;7.85;;;4.72;;
43933;SDS011;59081;42.706;23.306;2023-05-07T09:44:19;6.72;;;4.20;;
43933;SDS011;59081;42.706;23.306;2023-05-07T09:46:45;6.80;;;3.85;;
43933;SDS011;59081;42.706;23.306;2023-05-07T09:49:20;6.88;;;4.28;;
43933;SDS011;59081;42.706;23.306;2023-05-07T09:54:15;5.55;;;3.92;;
43933;SDS011;59081;42.706;23.306;2023-05-07T09:56:42;3.92;;;3.28;;
43933;SDS011;59081;42.706;23.306;2023-05-07T09:59:12;8.45;;;3.75;;
43933;SDS011;59081;42.706;23.306;2023-05-07T10:01:39;8.00;;;3.90;;
43933;SDS011;59081;42.706;23.306;2023-05-07T10:04:06;5.97;;;3.60;;
43933;SDS011;59081;42.706;23.306;2023-05-07T10:06:33;5.68;;;4.03;;
43933;SDS011;59081;42.706;23.306;2023-05-07T10:08:59;5.45;;;3.22;;
43933;SDS011;59081;42.706;23.306;2023-05-07T10:11:25;5.95;;;3.65;;
43933;SDS011;59081;42.706;23.306;2023-05-07T10:13:51;3.63;;;2.58;;
43933;SDS011;59081;42.706;23.306;2023-05-07T10:16:17;9.13;;;2.78;;
43933;SDS011;59081;42.706;23.306;2023-05-07T10:18:43;3.65;;;2.30;;
43933;SDS011;59081;42.706;23.306;2023-05-07T10:21:11;3.53;;;3.22;;
43933;SDS011;59081;42.706;23.306;2023-05-07T10:23:50;6.82;;;2.60;;
43933;SDS011;59081;42.706;23.306;2023-05-07T10:26:17;3.80;;;2.80;;
43933;SDS011;59081;42.706;23.306;2023-05-07T10:28:45;4.65;;;3.00;;
43933;SDS011;59081;42.706;23.306;2023-05-07T10:34:16;6.63;;;3.08;;
43933;SDS011;59081;42.706;23.306;2023-05-07T10:36:47;5.80;;;2.50;;
43933;SDS011;59081;42.706;23.306;2023-05-07T10:39:13;4.45;;;2.65;;
43933;SDS011;59081;42.706;23.306;2023-05-07T10:41:39;3.28;;;2.80;;
43933;SDS011;59081;42.706;23.306;2023-05-07T10:44:04;3.50;;;2.53;;
43933;SDS011;59081;42.706;23.306;2023-05-07T10:46:30;3.90;;;2.83;;
43933;SDS011;59081;42.706;23.306;2023-05-07T10:51:28;11.70;;;3.30;;
43933;SDS011;59081;42.706;23.306;2023-05-07T10:56:37;3.55;;;2.58;;
43933;SDS011;59081;42.706;23.306;2023-05-07T11:01:49;7.75;;;3.88;;
43933;SDS011;59081;42.706;23.306;2023-05-07T11:04:18;4.15;;;2.58;;
43933;SDS011;59081;42.706;23.306;2023-05-07T11:15:08;4.15;;;2.40;;
43933;SDS011;59081;42.706;23.306;2023-05-07T11:17:51;4.15;;;2.50;;
43933;SDS011;59081;42.706;23.306;2023-05-07T11:20:18;3.80;;;2.60;;
43933;SDS011;59081;42.706;23.306;2023-05-07T11:22:43;4.00;;;2.20;;
43933;SDS011;59081;42.706;23.306;2023-05-07T11:25:09;4.78;;;2.42;;
43933;SDS011;59081;42.706;23.306;2023-05-07T11:27:36;2.78;;;2.03;;
43933;SDS011;59081;42.706;23.306;2023-05-07T11:30:02;5.45;;;2.13;;
43933;SDS011;59081;42.706;23.306;2023-05-07T11:32:29;3.38;;;2.42;;
43933;SDS011;59081;42.706;23.306;2023-05-07T11:34:56;5.60;;;3.03;;
43933;SDS011;59081;42.706;23.306;2023-05-07T11:37:25;5.25;;;2.55;;
43933;SDS011;59081;42.706;23.306;2023-05-07T11:40:06;9.80;;;3.00;;
43933;SDS011;59081;42.706;23.306;2023-05-07T11:42:36;5.57;;;2.90;;
43933;SDS011;59081;42.706;23.306;2023-05-07T11:45:03;6.00;;;2.80;;
43933;SDS011;59081;42.706;23.306;2023-05-07T11:47:30;3.53;;;3.05;;
43933;SDS011;59081;42.706;23.306;2023-05-07T11:49:56;2.85;;;2.15;;
43933;SDS011;59081;42.706;23.306;2023-05-07T11:52:26;2.95;;;2.45;;
43933;SDS011;59081;42.706;23.306;2023-05-07T11:54:52;5.05;;;2.80;;
43933;SDS011;59081;42.706;23.306;2023-05-07T11:57:23;2.92;;;2.50;;
43933;SDS011;59081;42.706;23.306;2023-05-07T11:59:59;5.65;;;2.30;;
43933;SDS011;59081;42.706;23.306;2023-05-07T12:02:27;2.03;;;1.92;;
43933;SDS011;59081;42.706;23.306;2023-05-07T12:04:53;3.75;;;2.30;;
43933;SDS011;59081;42.706;23.306;2023-05-07T12:07:19;4.43;;;2.25;;
43933;SDS011;59081;42.706;23.306;2023-05-07T12:09:46;2.17;;;1.75;;
43933;SDS011;59081;42.706;23.306;2023-05-07T12:12:12;3.08;;;1.88;;
43933;SDS011;59081;42.706;23.306;2023-05-07T12:14:42;3.13;;;2.07;;
43933;SDS011;59081;42.706;23.306;2023-05-07T12:17:09;5.43;;;2.30;;
43933;SDS011;59081;42.706;23.306;2023-05-07T12:19:36;3.22;;;2.25;;
43933;SDS011;59081;42.706;23.306;2023-05-07T12:22:03;2.58;;;1.95;;
43933;SDS011;59081;42.706;23.306;2023-05-07T12:24:42;3.75;;;2.30;;
43933;SDS011;59081;42.706;23.306;2023-05-07T12:27:11;4.97;;;2.03;;
43933;SDS011;59081;42.706;23.306;2023-05-07T12:29:37;2.38;;;1.80;;
43933;SDS011;59081;42.706;23.306;2023-05-07T12:32:05;2.45;;;1.70;;
43933;SDS011;59081;42.706;23.306;2023-05-07T12:34:31;3.33;;;2.20;;
43933;SDS011;59081;42.706;23.306;2023-05-07T12:36:57;5.65;;;2.10;;
43933;SDS011;59081;42.706;23.306;2023-05-07T12:39:26;2.70;;;2.22;;
43933;SDS011;59081;42.706;23.306;2023-05-07T12:41:53;1.77;;;1.67;;
43933;SDS011;59081;42.706;23.306;2023-05-07T12:44:28;4.70;;;1.80;;
43933;SDS011;59081;42.706;23.306;2023-05-07T12:46:55;2.03;;;1.83;;
43933;SDS011;59081;42.706;23.306;2023-05-07T12:49:20;2.20;;;1.90;;
43933;SDS011;59081;42.706;23.306;2023-05-07T12:51:46;3.65;;;2.22;;
43933;SDS011;59081;42.706;23.306;2023-05-07T12:54:13;3.20;;;2.50;;
43933;SDS011;59081;42.706;23.306;2023-05-07T12:56:39;2.83;;;2.20;;
43933;SDS011;59081;42.706;23.306;2023-05-07T12:59:05;3.35;;;2.40;;
43933;SDS011;59081;42.706;23.306;2023-05-07T13:01:31;4.00;;;1.75;;
43933;SDS011;59081;42.706;23.306;2023-05-07T13:04:05;3.33;;;1.80;;
43933;SDS011;59081;42.706;23.306;2023-05-07T13:06:30;5.03;;;2.17;;
43933;SDS011;59081;42.706;23.306;2023-05-07T13:08:56;3.33;;;1.85;;
43933;SDS011;59081;42.706;23.306;2023-05-07T13:11:22;2.80;;;2.00;;
43933;SDS011;59081;42.706;23.306;2023-05-07T13:13:47;6.57;;;1.83;;
43933;SDS011;59081;42.706;23.306;2023-05-07T13:16:13;3.50;;;2.10;;
43933;SDS011;59081;42.706;23.306;2023-05-07T13:18:39;3.95;;;2.03;;
43933;SDS011;59081;42.706;23.306;2023-05-07T13:21:05;8.38;;;3.10;;
43933;SDS011;59081;42.706;23.306;2023-05-07T13:23:31;3.13;;;2.00;;
43933;SDS011;59081;42.706;23.306;2023-05-07T13:25:56;4.57;;;2.20;;
43933;SDS011;59081;42.706;23.306;2023-05-07T13:28:25;6.95;;;2.17;;
43933;SDS011;59081;42.706;23.306;2023-05-07T13:30:51;7.18;;;2.45;;
43933;SDS011;59081;42.706;23.306;2023-05-07T13:33:17;3.03;;;2.10;;
43933;SDS011;59081;42.706;23.306;2023-05-07T13:35:43;3.50;;;2.08;;
43933;SDS011;59081;42.706;23.306;2023-05-07T13:38:09;7.05;;;2.00;;
43933;SDS011;59081;42.706;23.306;2023-05-07T13:40:35;5.35;;;2.00;;
43933;SDS011;59081;42.706;23.306;2023-05-07T13:43:00;3.20;;;1.67;;
43933;SDS011;59081;42.706;23.306;2023-05-07T13:45:29;2.20;;;1.73;;
43933;SDS011;59081;42.706;23.306;2023-05-07T13:47:55;5.07;;;2.30;;
43933;SDS011;59081;42.706;23.306;2023-05-07T13:50:21;3.67;;;2.08;;
43933;SDS011;59081;42.706;23.306;2023-05-07T13:52:46;2.72;;;2.40;;
43933;SDS011;59081;42.706;23.306;2023-05-07T13:55:18;3.67;;;2.10;;
43933;SDS011;59081;42.706;23.306;2023-05-07T13:57:46;2.55;;;2.13;;
43933;SDS011;59081;42.706;23.306;2023-05-07T14:00:12;2.65;;;2.45;;
43933;SDS011;59081;42.706;23.306;2023-05-07T14:02:39;2.75;;;2.03;;
43933;SDS011;59081;42.706;23.306;2023-05-07T14:05:04;3.72;;;2.40;;
43933;SDS011;59081;42.706;23.306;2023-05-07T14:07:30;3.25;;;1.90;;
43933;SDS011;59081;42.706;23.306;2023-05-07T14:09:56;3.88;;;2.22;;
43933;SDS011;59081;42.706;23.306;2023-05-07T14:12:22;2.30;;;1.95;;
43933;SDS011;59081;42.706;23.306;2023-05-07T14:14:47;2.50;;;1.90;;
43933;SDS011;59081;42.706;23.306;2023-05-07T14:17:14;6.25;;;2.03;;
43933;SDS011;59081;42.706;23.306;2023-05-07T14:19:41;2.85;;;2.10;;
43933;SDS011;59081;42.706;23.306;2023-05-07T14:22:06;3.20;;;2.20;;
43933;SDS011;59081;42.706;23.306;2023-05-07T14:24:32;3.58;;;2.00;;
43933;SDS011;59081;42.706;23.306;2023-05-07T14:26:57;6.57;;;2.78;;
43933;SDS011;59081;42.706;23.306;2023-05-07T14:29:22;3.90;;;2.10;;
43933;SDS011;59081;42.706;23.306;2023-05-07T14:31:48;4.22;;;2.83;;
43933;SDS011;59081;42.706;23.306;2023-05-07T14:34:13;3.65;;;1.90;;
43933;SDS011;59081;42.706;23.306;2023-05-07T14:36:39;5.13;;;2.13;;
43933;SDS011;59081;42.706;23.306;2023-05-07T14:39:04;2.28;;;2.08;;
43933;SDS011;59081;42.706;23.306;2023-05-07T14:41:30;4.03;;;2.38;;
43933;SDS011;59081;42.706;23.306;2023-05-07T14:43:56;4.22;;;2.50;;
43933;SDS011;59081;42.706;23.306;2023-05-07T14:46:23;5.50;;;2.75;;
43933;SDS011;59081;42.706;23.306;2023-05-07T14:48:49;3.63;;;2.15;;